sensor_id;sensor_type;location;lat;lon;timestamp;P1;durP1;ratioP1;P2;durP2;ratioP2
17598;SDS011;8918;52.092;5.232;2023-07-31T00:00:12;5.07;;;3.60;;
17598;SDS011;8918;52.092;5.232;2023-07-31T00:02:38;5.68;;;3.85;;
17598;SDS011;8918;52.092;5.232;2023-07-31T00:05:04;5.35;;;3.83;;
17598;SDS011;8918;52.092;5.232;2023-07-31T00:07:29;4.88;;;3.95;;
17598;SDS011;8918;52.092;5.232;2023-07-31T00:09:56;5.18;;;3.95;;
17598;SDS011;8918;52.092;5.232;2023-07-31T00:12:22;6.82;;;4.20;;
17598;SDS011;8918;52.092;5.232;2023-07-31T00:14:48;6.00;;;3.72;;
17598;SDS011;8918;52.092;5.232;2023-07-31T00:17:13;6.68;;;3.78;;
17598;SDS011;8918;52.092;5.232;2023-07-31T00:19:39;8.10;;;4.18;;
17598;SDS011;8918;52.092;5.232;2023-07-31T00:22:05;10.27;;;4.05;;
17598;SDS011;8918;52.092;5.232;2023-07-31T00:24:31;16.02;;;5.88;;
17598;SDS011;8918;52.092;5.232;2023-07-31T00:26:56;15.73;;;5.57;;
17598;SDS011;8918;52.092;5.232;2023-07-31T00:29:22;16.77;;;6.57;;
17598;SDS011;8918;52.092;5.232;2023-07-31T00:31:48;23.85;;;7.05;;
17598;SDS011;8918;52.092;5.232;2023-07-31T00:34:13;25.80;;;7.97;;
17598;SDS011;8918;52.092;5.232;2023-07-31T00:36:39;30.38;;;8.73;;
17598;SDS011;8918;52.092;5.232;2023-07-31T00:39:04;28.30;;;8.57;;
17598;SDS011;8918;52.092;5.232;2023-07-31T00:41:30;33.67;;;8.93;;
17598;SDS011;8918;52.092;5.232;2023-07-31T00:43:56;26.67;;;9.30;;
17598;SDS011;8918;52.092;5.232;2023-07-31T00:46:21;26.55;;;9.27;;
17598;SDS011;8918;52.092;5.232;2023-07-31T00:48:47;30.58;;;9.48;;
17598;SDS011;8918;52.092;5.232;2023-07-31T00:51:13;31.63;;;9.60;;
17598;SDS011;8918;52.092;5.232;2023-07-31T00:53:40;24.75;;;8.65;;
17598;SDS011;8918;52.092;5.232;2023-07-31T00:56:06;29.48;;;8.60;;
17598;SDS011;8918;52.092;5.232;2023-07-31T00:58:32;31.52;;;8.40;;
17598;SDS011;8918;52.092;5.232;2023-07-31T01:00:58;27.38;;;9.02;;
17598;SDS011;8918;52.092;5.232;2023-07-31T01:03:23;26.15;;;8.48;;
17598;SDS011;8918;52.092;5.232;2023-07-31T01:08:40;25.08;;;8.57;;
17598;SDS011;8918;52.092;5.232;2023-07-31T01:11:15;27.52;;;9.10;;
17598;SDS011;8918;52.092;5.232;2023-07-31T01:13:48;28.73;;;8.32;;
17598;SDS011;8918;52.092;5.232;2023-07-31T01:16:14;32.35;;;8.50;;
17598;SDS011;8918;52.092;5.232;2023-07-31T01:18:39;27.98;;;8.93;;
17598;SDS011;8918;52.092;5.232;2023-07-31T01:24:00;29.85;;;8.98;;
17598;SDS011;8918;52.092;5.232;2023-07-31T01:26:40;28.00;;;8.73;;
17598;SDS011;8918;52.092;5.232;2023-07-31T01:29:26;22.77;;;8.15;;
17598;SDS011;8918;52.092;5.232;2023-07-31T01:31:57;20.33;;;7.63;;
17598;SDS011;8918;52.092;5.232;2023-07-31T01:34:27;29.05;;;7.90;;
17598;SDS011;8918;52.092;5.232;2023-07-31T01:36:53;27.20;;;8.88;;
17598;SDS011;8918;52.092;5.232;2023-07-31T01:39:20;30.65;;;9.00;;
17598;SDS011;8918;52.092;5.232;2023-07-31T01:41:46;22.00;;;8.07;;
17598;SDS011;8918;52.092;5.232;2023-07-31T01:44:12;26.85;;;8.82;;
17598;SDS011;8918;52.092;5.232;2023-07-31T01:46:37;25.45;;;8.55;;
17598;SDS011;8918;52.092;5.232;2023-07-31T01:49:03;24.67;;;8.00;;
17598;SDS011;8918;52.092;5.232;2023-07-31T01:51:30;26.73;;;9.05;;
17598;SDS011;8918;52.092;5.232;2023-07-31T01:53:59;24.17;;;8.80;;
17598;SDS011;8918;52.092;5.232;2023-07-31T01:56:25;21.50;;;8.73;;
17598;SDS011;8918;52.092;5.232;2023-07-31T01:58:51;18.42;;;7.47;;
17598;SDS011;8918;52.092;5.232;2023-07-31T02:01:16;20.25;;;7.38;;
17598;SDS011;8918;52.092;5.232;2023-07-31T02:03:42;18.23;;;7.35;;
17598;SDS011;8918;52.092;5.232;2023-07-31T02:06:07;21.20;;;7.65;;
17598;SDS011;8918;52.092;5.232;2023-07-31T02:08:33;21.98;;;7.40;;
17598;SDS011;8918;52.092;5.232;2023-07-31T02:10:58;19.42;;;7.45;;
17598;SDS011;8918;52.092;5.232;2023-07-31T02:13:24;20.50;;;7.07;;
17598;SDS011;8918;52.092;5.232;2023-07-31T02:15:50;20.05;;;7.35;;
17598;SDS011;8918;52.092;5.232;2023-07-31T02:18:16;20.02;;;6.85;;
17598;SDS011;8918;52.092;5.232;2023-07-31T02:20:41;21.55;;;6.82;;
17598;SDS011;8918;52.092;5.232;2023-07-31T02:23:07;18.73;;;6.85;;
17598;SDS011;8918;52.092;5.232;2023-07-31T02:25:32;16.92;;;6.68;;
17598;SDS011;8918;52.092;5.232;2023-07-31T02:27:58;17.17;;;6.93;;
17598;SDS011;8918;52.092;5.232;2023-07-31T02:30:23;19.05;;;6.53;;
17598;SDS011;8918;52.092;5.232;2023-07-31T02:32:49;17.45;;;6.50;;
17598;SDS011;8918;52.092;5.232;2023-07-31T02:35:15;23.98;;;7.53;;
17598;SDS011;8918;52.092;5.232;2023-07-31T02:37:41;21.00;;;7.50;;
17598;SDS011;8918;52.092;5.232;2023-07-31T02:40:07;20.75;;;7.10;;
17598;SDS011;8918;52.092;5.232;2023-07-31T02:42:33;19.33;;;7.13;;
17598;SDS011;8918;52.092;5.232;2023-07-31T02:44:59;22.05;;;7.57;;
17598;SDS011;8918;52.092;5.232;2023-07-31T02:47:24;26.13;;;7.88;;
17598;SDS011;8918;52.092;5.232;2023-07-31T02:49:50;26.92;;;8.02;;
17598;SDS011;8918;52.092;5.232;2023-07-31T02:52:15;22.80;;;7.53;;
17598;SDS011;8918;52.092;5.232;2023-07-31T02:54:41;27.02;;;8.00;;
17598;SDS011;8918;52.092;5.232;2023-07-31T02:57:07;24.23;;;8.02;;
17598;SDS011;8918;52.092;5.232;2023-07-31T02:59:32;27.70;;;8.13;;
17598;SDS011;8918;52.092;5.232;2023-07-31T03:01:58;26.27;;;8.60;;
17598;SDS011;8918;52.092;5.232;2023-07-31T03:04:23;24.40;;;8.18;;
17598;SDS011;8918;52.092;5.232;2023-07-31T03:06:49;29.48;;;8.25;;
17598;SDS011;8918;52.092;5.232;2023-07-31T03:09:15;26.05;;;9.02;;
17598;SDS011;8918;52.092;5.232;2023-07-31T03:11:40;28.67;;;8.73;;
17598;SDS011;8918;52.092;5.232;2023-07-31T03:14:06;30.40;;;9.55;;
17598;SDS011;8918;52.092;5.232;2023-07-31T03:16:32;27.77;;;8.70;;
17598;SDS011;8918;52.092;5.232;2023-07-31T03:18:57;27.77;;;9.88;;
17598;SDS011;8918;52.092;5.232;2023-07-31T03:21:23;28.35;;;9.23;;
17598;SDS011;8918;52.092;5.232;2023-07-31T03:23:48;30.30;;;10.20;;
17598;SDS011;8918;52.092;5.232;2023-07-31T03:26:14;30.80;;;9.75;;
17598;SDS011;8918;52.092;5.232;2023-07-31T03:28:40;24.10;;;8.98;;
17598;SDS011;8918;52.092;5.232;2023-07-31T03:31:05;28.25;;;9.43;;
17598;SDS011;8918;52.092;5.232;2023-07-31T03:33:33;24.95;;;9.27;;
17598;SDS011;8918;52.092;5.232;2023-07-31T03:35:58;25.08;;;9.15;;
17598;SDS011;8918;52.092;5.232;2023-07-31T03:38:24;22.27;;;9.43;;
17598;SDS011;8918;52.092;5.232;2023-07-31T03:40:50;22.80;;;8.73;;
17598;SDS011;8918;52.092;5.232;2023-07-31T03:43:15;26.77;;;9.02;;
17598;SDS011;8918;52.092;5.232;2023-07-31T03:45:41;21.95;;;8.13;;
17598;SDS011;8918;52.092;5.232;2023-07-31T03:48:06;23.35;;;8.45;;
17598;SDS011;8918;52.092;5.232;2023-07-31T03:50:33;21.27;;;8.85;;
17598;SDS011;8918;52.092;5.232;2023-07-31T03:52:59;22.67;;;8.40;;
17598;SDS011;8918;52.092;5.232;2023-07-31T03:55:24;27.00;;;9.13;;
17598;SDS011;8918;52.092;5.232;2023-07-31T03:57:50;25.08;;;8.45;;
17598;SDS011;8918;52.092;5.232;2023-07-31T04:00:15;20.73;;;8.60;;
17598;SDS011;8918;52.092;5.232;2023-07-31T04:02:41;23.90;;;8.57;;
17598;SDS011;8918;52.092;5.232;2023-07-31T04:05:07;22.23;;;8.48;;
17598;SDS011;8918;52.092;5.232;2023-07-31T04:07:33;24.85;;;9.07;;
17598;SDS011;8918;52.092;5.232;2023-07-31T04:09:59;21.90;;;8.95;;
17598;SDS011;8918;52.092;5.232;2023-07-31T04:12:25;28.65;;;8.98;;
17598;SDS011;8918;52.092;5.232;2023-07-31T04:14:50;23.88;;;9.10;;
17598;SDS011;8918;52.092;5.232;2023-07-31T04:17:17;21.60;;;8.50;;
17598;SDS011;8918;52.092;5.232;2023-07-31T04:19:43;20.75;;;8.05;;
17598;SDS011;8918;52.092;5.232;2023-07-31T04:22:08;24.52;;;8.45;;
17598;SDS011;8918;52.092;5.232;2023-07-31T04:24:34;20.52;;;8.68;;
17598;SDS011;8918;52.092;5.232;2023-07-31T04:26:59;20.60;;;8.77;;
17598;SDS011;8918;52.092;5.232;2023-07-31T04:29:25;24.52;;;9.02;;
17598;SDS011;8918;52.092;5.232;2023-07-31T04:31:50;19.23;;;7.55;;
17598;SDS011;8918;52.092;5.232;2023-07-31T04:34:16;21.80;;;8.02;;
17598;SDS011;8918;52.092;5.232;2023-07-31T04:36:42;20.27;;;8.35;;
17598;SDS011;8918;52.092;5.232;2023-07-31T04:39:07;18.92;;;8.10;;
17598;SDS011;8918;52.092;5.232;2023-07-31T04:41:33;19.27;;;7.95;;
17598;SDS011;8918;52.092;5.232;2023-07-31T04:43:58;19.73;;;8.18;;
17598;SDS011;8918;52.092;5.232;2023-07-31T04:46:24;22.63;;;8.35;;
17598;SDS011;8918;52.092;5.232;2023-07-31T04:48:50;24.45;;;8.45;;
17598;SDS011;8918;52.092;5.232;2023-07-31T04:51:15;20.50;;;8.25;;
17598;SDS011;8918;52.092;5.232;2023-07-31T04:53:41;20.95;;;8.43;;
17598;SDS011;8918;52.092;5.232;2023-07-31T04:56:06;18.13;;;7.45;;
17598;SDS011;8918;52.092;5.232;2023-07-31T04:58:32;18.10;;;7.72;;
17598;SDS011;8918;52.092;5.232;2023-07-31T05:00:58;19.85;;;7.40;;
17598;SDS011;8918;52.092;5.232;2023-07-31T05:03:23;16.25;;;7.20;;
17598;SDS011;8918;52.092;5.232;2023-07-31T05:05:49;18.60;;;6.97;;
17598;SDS011;8918;52.092;5.232;2023-07-31T05:08:15;16.23;;;7.10;;
17598;SDS011;8918;52.092;5.232;2023-07-31T05:10:42;15.30;;;7.05;;
17598;SDS011;8918;52.092;5.232;2023-07-31T05:13:08;14.50;;;6.55;;
17598;SDS011;8918;52.092;5.232;2023-07-31T05:15:34;15.18;;;6.20;;
17598;SDS011;8918;52.092;5.232;2023-07-31T05:17:59;10.73;;;5.72;;
17598;SDS011;8918;52.092;5.232;2023-07-31T05:20:25;16.05;;;5.45;;
17598;SDS011;8918;52.092;5.232;2023-07-31T05:22:52;12.23;;;5.90;;
17598;SDS011;8918;52.092;5.232;2023-07-31T05:25:18;10.95;;;5.75;;
17598;SDS011;8918;52.092;5.232;2023-07-31T05:27:43;12.10;;;5.50;;
17598;SDS011;8918;52.092;5.232;2023-07-31T05:30:09;10.73;;;5.63;;
17598;SDS011;8918;52.092;5.232;2023-07-31T05:32:35;12.27;;;5.18;;
17598;SDS011;8918;52.092;5.232;2023-07-31T05:35:00;11.57;;;5.40;;
17598;SDS011;8918;52.092;5.232;2023-07-31T05:37:26;8.63;;;4.70;;
17598;SDS011;8918;52.092;5.232;2023-07-31T05:39:52;10.93;;;5.53;;
17598;SDS011;8918;52.092;5.232;2023-07-31T05:42:17;10.48;;;5.45;;
17598;SDS011;8918;52.092;5.232;2023-07-31T05:44:43;11.73;;;6.10;;
17598;SDS011;8918;52.092;5.232;2023-07-31T05:47:09;10.85;;;5.47;;
17598;SDS011;8918;52.092;5.232;2023-07-31T05:49:34;10.45;;;5.65;;
17598;SDS011;8918;52.092;5.232;2023-07-31T05:52:00;11.85;;;5.95;;
17598;SDS011;8918;52.092;5.232;2023-07-31T05:54:25;11.93;;;6.40;;
17598;SDS011;8918;52.092;5.232;2023-07-31T05:56:51;13.48;;;6.43;;
17598;SDS011;8918;52.092;5.232;2023-07-31T05:59:17;13.85;;;6.45;;
17598;SDS011;8918;52.092;5.232;2023-07-31T06:01:42;15.75;;;6.35;;
17598;SDS011;8918;52.092;5.232;2023-07-31T06:04:08;14.48;;;6.60;;
17598;SDS011;8918;52.092;5.232;2023-07-31T06:06:33;17.70;;;7.00;;
17598;SDS011;8918;52.092;5.232;2023-07-31T06:08:59;15.60;;;6.70;;
17598;SDS011;8918;52.092;5.232;2023-07-31T06:11:25;11.65;;;6.60;;
17598;SDS011;8918;52.092;5.232;2023-07-31T06:13:50;12.25;;;6.47;;
17598;SDS011;8918;52.092;5.232;2023-07-31T06:16:16;13.45;;;6.28;;
17598;SDS011;8918;52.092;5.232;2023-07-31T06:18:42;18.75;;;6.70;;
17598;SDS011;8918;52.092;5.232;2023-07-31T06:21:08;12.82;;;6.40;;
17598;SDS011;8918;52.092;5.232;2023-07-31T06:23:35;12.27;;;5.97;;
17598;SDS011;8918;52.092;5.232;2023-07-31T06:26:00;10.95;;;6.13;;
17598;SDS011;8918;52.092;5.232;2023-07-31T06:28:29;13.05;;;6.10;;
17598;SDS011;8918;52.092;5.232;2023-07-31T06:30:56;11.07;;;5.97;;
17598;SDS011;8918;52.092;5.232;2023-07-31T06:33:22;8.50;;;5.55;;
17598;SDS011;8918;52.092;5.232;2023-07-31T06:35:48;12.05;;;5.63;;
17598;SDS011;8918;52.092;5.232;2023-07-31T06:38:14;9.55;;;5.57;;
17598;SDS011;8918;52.092;5.232;2023-07-31T06:40:39;9.07;;;5.28;;
17598;SDS011;8918;52.092;5.232;2023-07-31T06:43:05;9.45;;;5.15;;
17598;SDS011;8918;52.092;5.232;2023-07-31T06:45:34;11.23;;;5.15;;
17598;SDS011;8918;52.092;5.232;2023-07-31T06:48:00;9.23;;;5.32;;
17598;SDS011;8918;52.092;5.232;2023-07-31T06:50:27;10.25;;;5.10;;
17598;SDS011;8918;52.092;5.232;2023-07-31T06:52:53;9.73;;;4.70;;
17598;SDS011;8918;52.092;5.232;2023-07-31T06:55:19;7.20;;;4.32;;
17598;SDS011;8918;52.092;5.232;2023-07-31T06:57:48;10.23;;;4.90;;
17598;SDS011;8918;52.092;5.232;2023-07-31T07:00:16;7.32;;;4.07;;
17598;SDS011;8918;52.092;5.232;2023-07-31T07:02:42;10.25;;;4.93;;
17598;SDS011;8918;52.092;5.232;2023-07-31T07:05:08;8.82;;;5.05;;
17598;SDS011;8918;52.092;5.232;2023-07-31T07:07:34;9.02;;;5.00;;
17598;SDS011;8918;52.092;5.232;2023-07-31T07:10:00;8.68;;;4.70;;
17598;SDS011;8918;52.092;5.232;2023-07-31T07:12:26;9.38;;;4.85;;
17598;SDS011;8918;52.092;5.232;2023-07-31T07:14:55;7.50;;;4.65;;
17598;SDS011;8918;52.092;5.232;2023-07-31T07:17:23;10.20;;;5.03;;
17598;SDS011;8918;52.092;5.232;2023-07-31T07:19:50;12.23;;;4.88;;
17598;SDS011;8918;52.092;5.232;2023-07-31T07:22:15;6.97;;;4.38;;
17598;SDS011;8918;52.092;5.232;2023-07-31T07:24:41;6.78;;;4.45;;
17598;SDS011;8918;52.092;5.232;2023-07-31T07:27:07;9.45;;;4.88;;
17598;SDS011;8918;52.092;5.232;2023-07-31T07:29:37;8.98;;;5.00;;
17598;SDS011;8918;52.092;5.232;2023-07-31T07:32:03;8.10;;;4.30;;
17598;SDS011;8918;52.092;5.232;2023-07-31T07:34:30;6.95;;;4.20;;
17598;SDS011;8918;52.092;5.232;2023-07-31T07:36:55;6.82;;;4.40;;
17598;SDS011;8918;52.092;5.232;2023-07-31T07:39:21;7.32;;;4.50;;
17598;SDS011;8918;52.092;5.232;2023-07-31T07:41:46;7.35;;;4.40;;
17598;SDS011;8918;52.092;5.232;2023-07-31T07:44:13;5.75;;;4.15;;
17598;SDS011;8918;52.092;5.232;2023-07-31T07:46:39;6.22;;;3.95;;
17598;SDS011;8918;52.092;5.232;2023-07-31T07:49:05;7.35;;;4.20;;
17598;SDS011;8918;52.092;5.232;2023-07-31T07:51:30;5.72;;;4.15;;
17598;SDS011;8918;52.092;5.232;2023-07-31T07:53:59;6.90;;;4.00;;
17598;SDS011;8918;52.092;5.232;2023-07-31T07:56:26;4.30;;;3.90;;
17598;SDS011;8918;52.092;5.232;2023-07-31T07:58:52;6.45;;;3.83;;
17598;SDS011;8918;52.092;5.232;2023-07-31T08:01:18;6.78;;;3.65;;
17598;SDS011;8918;52.092;5.232;2023-07-31T08:03:44;4.95;;;3.45;;
17598;SDS011;8918;52.092;5.232;2023-07-31T08:06:10;5.03;;;3.25;;
17598;SDS011;8918;52.092;5.232;2023-07-31T08:08:36;4.72;;;2.85;;
17598;SDS011;8918;52.092;5.232;2023-07-31T08:11:02;4.00;;;3.10;;
17598;SDS011;8918;52.092;5.232;2023-07-31T08:13:27;5.25;;;3.33;;
17598;SDS011;8918;52.092;5.232;2023-07-31T08:15:53;4.03;;;2.78;;
17598;SDS011;8918;52.092;5.232;2023-07-31T08:18:19;4.15;;;3.08;;
17598;SDS011;8918;52.092;5.232;2023-07-31T08:20:45;5.03;;;2.95;;
17598;SDS011;8918;52.092;5.232;2023-07-31T08:23:10;6.40;;;3.10;;
17598;SDS011;8918;52.092;5.232;2023-07-31T08:25:36;4.50;;;2.83;;
17598;SDS011;8918;52.092;5.232;2023-07-31T08:28:03;3.63;;;2.90;;
17598;SDS011;8918;52.092;5.232;2023-07-31T08:30:29;3.60;;;2.72;;
17598;SDS011;8918;52.092;5.232;2023-07-31T08:32:55;2.90;;;2.40;;
17598;SDS011;8918;52.092;5.232;2023-07-31T08:35:21;3.47;;;2.53;;
17598;SDS011;8918;52.092;5.232;2023-07-31T08:37:46;3.95;;;2.55;;
17598;SDS011;8918;52.092;5.232;2023-07-31T08:40:12;3.10;;;2.13;;
17598;SDS011;8918;52.092;5.232;2023-07-31T08:42:48;3.88;;;2.50;;
17598;SDS011;8918;52.092;5.232;2023-07-31T08:45:16;3.17;;;2.58;;
17598;SDS011;8918;52.092;5.232;2023-07-31T08:47:44;4.38;;;2.90;;
17598;SDS011;8918;52.092;5.232;2023-07-31T08:50:15;4.80;;;2.63;;
17598;SDS011;8918;52.092;5.232;2023-07-31T08:52:42;3.92;;;2.35;;
17598;SDS011;8918;52.092;5.232;2023-07-31T08:55:09;3.65;;;2.63;;
17598;SDS011;8918;52.092;5.232;2023-07-31T08:57:37;3.90;;;2.70;;
17598;SDS011;8918;52.092;5.232;2023-07-31T09:00:06;3.42;;;2.63;;
17598;SDS011;8918;52.092;5.232;2023-07-31T09:02:46;3.60;;;2.35;;
17598;SDS011;8918;52.092;5.232;2023-07-31T09:05:12;3.03;;;2.45;;
17598;SDS011;8918;52.092;5.232;2023-07-31T09:07:37;3.38;;;2.72;;
17598;SDS011;8918;52.092;5.232;2023-07-31T09:10:04;2.70;;;2.50;;
17598;SDS011;8918;52.092;5.232;2023-07-31T09:12:30;3.08;;;2.65;;
17598;SDS011;8918;52.092;5.232;2023-07-31T09:14:57;5.03;;;2.90;;
17598;SDS011;8918;52.092;5.232;2023-07-31T09:17:29;5.22;;;2.80;;
17598;SDS011;8918;52.092;5.232;2023-07-31T09:19:56;5.47;;;3.30;;
17598;SDS011;8918;52.092;5.232;2023-07-31T09:22:32;5.38;;;3.47;;
17598;SDS011;8918;52.092;5.232;2023-07-31T09:27:54;4.13;;;3.30;;
17598;SDS011;8918;52.092;5.232;2023-07-31T09:30:23;5.20;;;4.10;;
17598;SDS011;8918;52.092;5.232;2023-07-31T09:32:50;5.10;;;3.58;;
17598;SDS011;8918;52.092;5.232;2023-07-31T09:35:20;4.03;;;3.60;;
17598;SDS011;8918;52.092;5.232;2023-07-31T09:37:59;6.05;;;3.67;;
17598;SDS011;8918;52.092;5.232;2023-07-31T09:43:02;4.65;;;3.85;;
17598;SDS011;8918;52.092;5.232;2023-07-31T09:45:30;4.15;;;3.75;;
17598;SDS011;8918;52.092;5.232;2023-07-31T09:47:59;4.53;;;3.90;;
17598;SDS011;8918;52.092;5.232;2023-07-31T09:50:25;5.03;;;3.83;;
17598;SDS011;8918;52.092;5.232;2023-07-31T09:52:51;4.35;;;3.72;;
17598;SDS011;8918;52.092;5.232;2023-07-31T09:55:17;4.45;;;3.85;;
17598;SDS011;8918;52.092;5.232;2023-07-31T09:57:46;4.85;;;3.78;;
17598;SDS011;8918;52.092;5.232;2023-07-31T10:00:14;4.60;;;3.60;;
17598;SDS011;8918;52.092;5.232;2023-07-31T10:02:46;5.22;;;3.95;;
17598;SDS011;8918;52.092;5.232;2023-07-31T10:05:13;4.75;;;4.25;;
17598;SDS011;8918;52.092;5.232;2023-07-31T10:07:41;5.15;;;4.60;;
17598;SDS011;8918;52.092;5.232;2023-07-31T10:10:10;6.60;;;4.65;;
17598;SDS011;8918;52.092;5.232;2023-07-31T10:12:36;7.45;;;5.10;;
17598;SDS011;8918;52.092;5.232;2023-07-31T10:15:03;6.68;;;5.18;;
17598;SDS011;8918;52.092;5.232;2023-07-31T10:17:29;9.50;;;5.50;;
17598;SDS011;8918;52.092;5.232;2023-07-31T10:19:57;6.50;;;5.63;;
17598;SDS011;8918;52.092;5.232;2023-07-31T10:22:24;11.48;;;5.85;;
17598;SDS011;8918;52.092;5.232;2023-07-31T10:24:50;9.70;;;6.43;;
17598;SDS011;8918;52.092;5.232;2023-07-31T10:27:19;8.57;;;6.88;;
17598;SDS011;8918;52.092;5.232;2023-07-31T10:29:45;9.00;;;6.32;;
17598;SDS011;8918;52.092;5.232;2023-07-31T10:32:13;9.93;;;6.50;;
17598;SDS011;8918;52.092;5.232;2023-07-31T10:34:40;9.52;;;6.63;;
17598;SDS011;8918;52.092;5.232;2023-07-31T10:37:20;9.73;;;6.65;;
17598;SDS011;8918;52.092;5.232;2023-07-31T10:39:55;8.85;;;6.68;;
17598;SDS011;8918;52.092;5.232;2023-07-31T10:42:29;7.43;;;5.80;;
17598;SDS011;8918;52.092;5.232;2023-07-31T10:44:57;8.60;;;6.32;;
17598;SDS011;8918;52.092;5.232;2023-07-31T10:47:24;7.90;;;6.30;;
17598;SDS011;8918;52.092;5.232;2023-07-31T10:49:50;6.85;;;5.70;;
17598;SDS011;8918;52.092;5.232;2023-07-31T10:52:19;7.30;;;5.97;;
17598;SDS011;8918;52.092;5.232;2023-07-31T10:54:49;6.90;;;5.68;;
17598;SDS011;8918;52.092;5.232;2023-07-31T10:57:18;8.73;;;5.80;;
17598;SDS011;8918;52.092;5.232;2023-07-31T10:59:48;5.90;;;5.30;;
17598;SDS011;8918;52.092;5.232;2023-07-31T11:02:23;6.30;;;4.60;;
17598;SDS011;8918;52.092;5.232;2023-07-31T11:05:05;4.97;;;4.43;;
17598;SDS011;8918;52.092;5.232;2023-07-31T11:07:48;4.60;;;3.80;;
17598;SDS011;8918;52.092;5.232;2023-07-31T11:10:17;4.38;;;3.97;;
17598;SDS011;8918;52.092;5.232;2023-07-31T11:12:44;4.75;;;3.70;;
17598;SDS011;8918;52.092;5.232;2023-07-31T11:15:11;5.15;;;3.55;;
17598;SDS011;8918;52.092;5.232;2023-07-31T11:17:40;4.13;;;3.30;;
17598;SDS011;8918;52.092;5.232;2023-07-31T11:20:06;4.43;;;3.40;;
17598;SDS011;8918;52.092;5.232;2023-07-31T11:22:34;5.00;;;3.70;;
17598;SDS011;8918;52.092;5.232;2023-07-31T11:25:01;4.93;;;3.70;;
17598;SDS011;8918;52.092;5.232;2023-07-31T11:27:28;4.78;;;4.28;;
17598;SDS011;8918;52.092;5.232;2023-07-31T11:29:59;4.68;;;3.80;;
17598;SDS011;8918;52.092;5.232;2023-07-31T11:32:26;4.65;;;4.13;;
17598;SDS011;8918;52.092;5.232;2023-07-31T11:34:55;5.32;;;4.20;;
17598;SDS011;8918;52.092;5.232;2023-07-31T11:37:21;5.72;;;5.03;;
17598;SDS011;8918;52.092;5.232;2023-07-31T11:40:00;5.78;;;4.88;;
17598;SDS011;8918;52.092;5.232;2023-07-31T11:42:26;6.78;;;5.20;;
17598;SDS011;8918;52.092;5.232;2023-07-31T11:44:51;8.15;;;5.43;;
17598;SDS011;8918;52.092;5.232;2023-07-31T11:47:17;8.30;;;5.75;;
17598;SDS011;8918;52.092;5.232;2023-07-31T11:49:43;7.82;;;6.05;;
17598;SDS011;8918;52.092;5.232;2023-07-31T11:52:09;6.85;;;5.57;;
17598;SDS011;8918;52.092;5.232;2023-07-31T11:54:36;7.55;;;5.80;;
17598;SDS011;8918;52.092;5.232;2023-07-31T11:57:03;7.53;;;5.78;;
17598;SDS011;8918;52.092;5.232;2023-07-31T11:59:29;8.40;;;5.57;;
17598;SDS011;8918;52.092;5.232;2023-07-31T12:01:55;7.72;;;5.38;;
17598;SDS011;8918;52.092;5.232;2023-07-31T12:04:21;6.07;;;4.97;;
17598;SDS011;8918;52.092;5.232;2023-07-31T12:06:48;7.03;;;4.95;;
17598;SDS011;8918;52.092;5.232;2023-07-31T12:09:15;7.03;;;5.35;;
17598;SDS011;8918;52.092;5.232;2023-07-31T12:11:44;6.70;;;4.68;;
17598;SDS011;8918;52.092;5.232;2023-07-31T12:14:26;5.65;;;4.80;;
17598;SDS011;8918;52.092;5.232;2023-07-31T12:16:56;6.13;;;4.63;;
17598;SDS011;8918;52.092;5.232;2023-07-31T12:19:24;7.78;;;4.43;;
17598;SDS011;8918;52.092;5.232;2023-07-31T12:21:55;4.82;;;4.40;;
17598;SDS011;8918;52.092;5.232;2023-07-31T12:24:21;4.65;;;3.97;;
17598;SDS011;8918;52.092;5.232;2023-07-31T12:26:47;4.10;;;3.70;;
17598;SDS011;8918;52.092;5.232;2023-07-31T12:29:14;6.32;;;4.18;;
17598;SDS011;8918;52.092;5.232;2023-07-31T12:31:40;5.20;;;4.38;;
17598;SDS011;8918;52.092;5.232;2023-07-31T12:34:15;5.72;;;4.40;;
17598;SDS011;8918;52.092;5.232;2023-07-31T12:36:42;6.07;;;4.90;;
17598;SDS011;8918;52.092;5.232;2023-07-31T12:39:08;5.32;;;4.82;;
17598;SDS011;8918;52.092;5.232;2023-07-31T12:41:34;5.60;;;4.78;;
17598;SDS011;8918;52.092;5.232;2023-07-31T12:44:00;5.80;;;4.78;;
17598;SDS011;8918;52.092;5.232;2023-07-31T12:46:25;5.45;;;4.95;;
17598;SDS011;8918;52.092;5.232;2023-07-31T12:48:51;5.63;;;5.03;;
17598;SDS011;8918;52.092;5.232;2023-07-31T12:51:16;6.18;;;5.07;;
17598;SDS011;8918;52.092;5.232;2023-07-31T12:53:42;6.13;;;5.22;;
17598;SDS011;8918;52.092;5.232;2023-07-31T12:56:08;5.97;;;5.00;;
17598;SDS011;8918;52.092;5.232;2023-07-31T12:58:33;6.38;;;4.93;;
17598;SDS011;8918;52.092;5.232;2023-07-31T13:00:59;5.72;;;4.85;;
17598;SDS011;8918;52.092;5.232;2023-07-31T13:03:24;5.28;;;4.78;;
17598;SDS011;8918;52.092;5.232;2023-07-31T13:05:50;5.53;;;4.78;;
17598;SDS011;8918;52.092;5.232;2023-07-31T13:08:17;5.95;;;4.57;;
17598;SDS011;8918;52.092;5.232;2023-07-31T13:10:43;5.55;;;4.75;;
17598;SDS011;8918;52.092;5.232;2023-07-31T13:13:09;7.75;;;5.10;;
17598;SDS011;8918;52.092;5.232;2023-07-31T13:15:35;5.40;;;4.22;;
17598;SDS011;8918;52.092;5.232;2023-07-31T13:18:00;5.40;;;4.68;;
17598;SDS011;8918;52.092;5.232;2023-07-31T13:20:26;4.68;;;4.28;;
17598;SDS011;8918;52.092;5.232;2023-07-31T13:22:52;4.35;;;3.75;;
17598;SDS011;8918;52.092;5.232;2023-07-31T13:25:17;4.53;;;4.00;;
17598;SDS011;8918;52.092;5.232;2023-07-31T13:27:43;5.45;;;4.05;;
17598;SDS011;8918;52.092;5.232;2023-07-31T13:30:09;5.70;;;3.70;;
17598;SDS011;8918;52.092;5.232;2023-07-31T13:32:34;3.63;;;3.25;;
17598;SDS011;8918;52.092;5.232;2023-07-31T13:35:04;3.13;;;2.78;;
17598;SDS011;8918;52.092;5.232;2023-07-31T13:37:33;4.20;;;2.92;;
17598;SDS011;8918;52.092;5.232;2023-07-31T13:39:59;2.58;;;2.33;;
17598;SDS011;8918;52.092;5.232;2023-07-31T13:42:25;3.60;;;2.22;;
17598;SDS011;8918;52.092;5.232;2023-07-31T13:44:51;2.58;;;2.28;;
17598;SDS011;8918;52.092;5.232;2023-07-31T13:47:17;3.47;;;2.50;;
17598;SDS011;8918;52.092;5.232;2023-07-31T13:49:42;3.42;;;3.13;;
17598;SDS011;8918;52.092;5.232;2023-07-31T13:52:08;3.60;;;3.03;;
17598;SDS011;8918;52.092;5.232;2023-07-31T13:54:34;3.85;;;3.42;;
17598;SDS011;8918;52.092;5.232;2023-07-31T13:57:00;5.05;;;3.17;;
17598;SDS011;8918;52.092;5.232;2023-07-31T13:59:26;2.80;;;2.50;;
17598;SDS011;8918;52.092;5.232;2023-07-31T14:01:51;4.53;;;2.80;;
17598;SDS011;8918;52.092;5.232;2023-07-31T14:04:17;4.82;;;2.83;;
17598;SDS011;8918;52.092;5.232;2023-07-31T14:06:43;3.45;;;2.95;;
17598;SDS011;8918;52.092;5.232;2023-07-31T14:09:09;4.78;;;2.83;;
17598;SDS011;8918;52.092;5.232;2023-07-31T14:11:35;3.60;;;3.05;;
17598;SDS011;8918;52.092;5.232;2023-07-31T14:14:00;7.40;;;3.58;;
17598;SDS011;8918;52.092;5.232;2023-07-31T14:16:29;6.22;;;3.50;;
17598;SDS011;8918;52.092;5.232;2023-07-31T14:18:55;5.68;;;3.72;;
17598;SDS011;8918;52.092;5.232;2023-07-31T14:21:20;5.00;;;3.83;;
17598;SDS011;8918;52.092;5.232;2023-07-31T14:23:46;6.07;;;5.45;;
17598;SDS011;8918;52.092;5.232;2023-07-31T14:26:12;10.02;;;8.10;;
17598;SDS011;8918;52.092;5.232;2023-07-31T14:28:38;8.73;;;7.82;;
17598;SDS011;8918;52.092;5.232;2023-07-31T14:31:03;9.23;;;7.85;;
17598;SDS011;8918;52.092;5.232;2023-07-31T14:33:29;10.63;;;7.60;;
17598;SDS011;8918;52.092;5.232;2023-07-31T14:35:55;9.73;;;8.55;;
17598;SDS011;8918;52.092;5.232;2023-07-31T14:38:20;11.63;;;8.57;;
17598;SDS011;8918;52.092;5.232;2023-07-31T14:40:46;9.70;;;8.30;;
17598;SDS011;8918;52.092;5.232;2023-07-31T14:43:11;9.40;;;8.40;;
17598;SDS011;8918;52.092;5.232;2023-07-31T14:45:37;9.10;;;8.05;;
17598;SDS011;8918;52.092;5.232;2023-07-31T14:48:02;9.18;;;8.23;;
17598;SDS011;8918;52.092;5.232;2023-07-31T14:50:28;10.00;;;8.15;;
17598;SDS011;8918;52.092;5.232;2023-07-31T14:52:54;8.70;;;7.75;;
17598;SDS011;8918;52.092;5.232;2023-07-31T14:55:20;9.70;;;7.38;;
17598;SDS011;8918;52.092;5.232;2023-07-31T14:57:46;8.48;;;7.07;;
17598;SDS011;8918;52.092;5.232;2023-07-31T15:00:11;8.50;;;6.90;;
17598;SDS011;8918;52.092;5.232;2023-07-31T15:02:37;8.20;;;7.40;;